sensor_id;sensor_type;location;lat;lon;timestamp;temperature;humidity
59007;DHT22;44792;52.760;6.726;2024-02-21T00:02:12;9.50;99.90
59007;DHT22;44792;52.760;6.726;2024-02-21T00:04:38;9.50;99.90
59007;DHT22;44792;52.760;6.726;2024-02-21T00:07:04;9.50;99.90
59007;DHT22;44792;52.760;6.726;2024-02-21T00:09:30;9.50;99.90
59007;DHT22;44792;52.760;6.726;2024-02-21T00:11:56;9.60;99.90
59007;DHT22;44792;52.760;6.726;2024-02-21T00:14:21;9.50;99.90
59007;DHT22;44792;52.760;6.726;2024-02-21T00:16:47;9.60;99.90
59007;DHT22;44792;52.760;6.726;2024-02-21T00:19:13;9.50;99.90
59007;DHT22;44792;52.760;6.726;2024-02-21T00:21:40;9.50;99.90
59007;DHT22;44792;52.760;6.726;2024-02-21T00:24:06;9.50;99.90
59007;DHT22;44792;52.760;6.726;2024-02-21T00:26:31;9.50;99.90
59007;DHT22;44792;52.760;6.726;2024-02-21T00:28:57;9.60;99.90
59007;DHT22;44792;52.760;6.726;2024-02-21T00:31:23;9.60;99.90
59007;DHT22;44792;52.760;6.726;2024-02-21T00:33:49;9.50;99.90
59007;DHT22;44792;52.760;6.726;2024-02-21T00:36:16;9.60;99.90
59007;DHT22;44792;52.760;6.726;2024-02-21T00:38:41;9.60;99.90
59007;DHT22;44792;52.760;6.726;2024-02-21T00:41:07;9.60;99.90
59007;DHT22;44792;52.760;6.726;2024-02-21T00:43:33;9.60;99.90
59007;DHT22;44792;52.760;6.726;2024-02-21T00:45:58;9.60;99.90
59007;DHT22;44792;52.760;6.726;2024-02-21T00:48:24;9.60;99.90
59007;DHT22;44792;52.760;6.726;2024-02-21T00:50:50;9.60;99.90
59007;DHT22;44792;52.760;6.726;2024-02-21T00:53:15;9.60;99.90
59007;DHT22;44792;52.760;6.726;2024-02-21T00:55:41;9.60;99.90
59007;DHT22;44792;52.760;6.726;2024-02-21T00:58:08;9.60;99.90
59007;DHT22;44792;52.760;6.726;2024-02-21T01:00:34;9.60;99.90
59007;DHT22;44792;52.760;6.726;2024-02-21T01:03:00;9.60;99.90
59007;DHT22;44792;52.760;6.726;2024-02-21T01:05:25;9.50;99.90
59007;DHT22;44792;52.760;6.726;2024-02-21T01:07:52;9.60;99.90
59007;DHT22;44792;52.760;6.726;2024-02-21T01:10:18;9.60;99.90
59007;DHT22;44792;52.760;6.726;2024-02-21T01:12:44;9.60;99.90
59007;DHT22;44792;52.760;6.726;2024-02-21T01:15:09;9.60;99.90
59007;DHT22;44792;52.760;6.726;2024-02-21T01:17:35;9.60;99.90
59007;DHT22;44792;52.760;6.726;2024-02-21T01:20:02;9.60;99.90
59007;DHT22;44792;52.760;6.726;2024-02-21T01:22:28;9.60;99.90
59007;DHT22;44792;52.760;6.726;2024-02-21T01:24:54;9.60;99.90
59007;DHT22;44792;52.760;6.726;2024-02-21T01:27:19;9.60;99.90
59007;DHT22;44792;52.760;6.726;2024-02-21T01:29:46;9.60;99.90
59007;DHT22;44792;52.760;6.726;2024-02-21T01:32:13;9.50;99.90
59007;DHT22;44792;52.760;6.726;2024-02-21T01:34:38;9.60;99.90
59007;DHT22;44792;52.760;6.726;2024-02-21T01:37:04;9.50;99.90
59007;DHT22;44792;52.760;6.726;2024-02-21T01:39:32;9.50;99.90
59007;DHT22;44792;52.760;6.726;2024-02-21T01:41:58;9.60;99.90
59007;DHT22;44792;52.760;6.726;2024-02-21T01:44:24;9.60;99.90
59007;DHT22;44792;52.760;6.726;2024-02-21T01:46:50;9.60;99.90
59007;DHT22;44792;52.760;6.726;2024-02-21T01:49:17;9.60;99.90
59007;DHT22;44792;52.760;6.726;2024-02-21T01:51:44;9.60;99.90
59007;DHT22;44792;52.760;6.726;2024-02-21T01:54:10;9.60;99.90
59007;DHT22;44792;52.760;6.726;2024-02-21T01:56:36;9.60;99.90
59007;DHT22;44792;52.760;6.726;2024-02-21T01:59:02;9.60;99.90
59007;DHT22;44792;52.760;6.726;2024-02-21T02:01:29;9.60;99.90
59007;DHT22;44792;52.760;6.726;2024-02-21T02:03:55;9.60;99.90
59007;DHT22;44792;52.760;6.726;2024-02-21T02:06:21;9.60;99.90
59007;DHT22;44792;52.760;6.726;2024-02-21T02:08:46;9.60;99.90
59007;DHT22;44792;52.760;6.726;2024-02-21T02:11:15;9.60;99.90
59007;DHT22;44792;52.760;6.726;2024-02-21T02:13:41;9.60;99.90
59007;DHT22;44792;52.760;6.726;2024-02-21T02:16:07;9.60;99.90
59007;DHT22;44792;52.760;6.726;2024-02-21T02:18:32;9.60;99.90
59007;DHT22;44792;52.760;6.726;2024-02-21T02:20:58;9.60;99.90
59007;DHT22;44792;52.760;6.726;2024-02-21T02:23:30;9.60;99.90
59007;DHT22;44792;52.760;6.726;2024-02-21T02:25:57;9.60;99.90
59007;DHT22;44792;52.760;6.726;2024-02-21T02:28:23;9.60;99.90
59007;DHT22;44792;52.760;6.726;2024-02-21T02:30:50;9.60;99.90
59007;DHT22;44792;52.760;6.726;2024-02-21T02:33:16;9.50;99.90
59007;DHT22;44792;52.760;6.726;2024-02-21T02:35:45;9.50;99.90
59007;DHT22;44792;52.760;6.726;2024-02-21T02:38:11;9.50;99.90
59007;DHT22;44792;52.760;6.726;2024-02-21T02:40:41;9.50;99.90
59007;DHT22;44792;52.760;6.726;2024-02-21T02:43:07;9.50;99.90
59007;DHT22;44792;52.760;6.726;2024-02-21T02:45:33;9.40;99.90
59007;DHT22;44792;52.760;6.726;2024-02-21T02:47:59;9.40;99.90
59007;DHT22;44792;52.760;6.726;2024-02-21T02:50:25;9.40;99.90
59007;DHT22;44792;52.760;6.726;2024-02-21T02:52:52;9.30;99.90
59007;DHT22;44792;52.760;6.726;2024-02-21T02:55:18;9.30;99.90
59007;DHT22;44792;52.760;6.726;2024-02-21T02:57:44;9.30;99.90
59007;DHT22;44792;52.760;6.726;2024-02-21T03:00:14;9.30;99.90
59007;DHT22;44792;52.760;6.726;2024-02-21T03:02:41;9.30;99.90
59007;DHT22;44792;52.760;6.726;2024-02-21T03:05:15;9.30;99.90
59007;DHT22;44792;52.760;6.726;2024-02-21T03:07:41;9.30;99.90
59007;DHT22;44792;52.760;6.726;2024-02-21T03:10:07;9.30;99.90
59007;DHT22;44792;52.760;6.726;2024-02-21T03:12:33;9.30;99.90
59007;DHT22;44792;52.760;6.726;2024-02-21T03:14:59;9.30;99.90
59007;DHT22;44792;52.760;6.726;2024-02-21T03:17:25;9.30;99.90
59007;DHT22;44792;52.760;6.726;2024-02-21T03:19:52;9.30;99.90
59007;DHT22;44792;52.760;6.726;2024-02-21T03:22:19;9.30;99.90
59007;DHT22;44792;52.760;6.726;2024-02-21T03:24:45;9.20;99.90
59007;DHT22;44792;52.760;6.726;2024-02-21T03:27:10;9.30;99.90
59007;DHT22;44792;52.760;6.726;2024-02-21T03:29:36;9.20;99.90
59007;DHT22;44792;52.760;6.726;2024-02-21T03:32:02;9.20;99.90
59007;DHT22;44792;52.760;6.726;2024-02-21T03:34:27;9.20;99.90
59007;DHT22;44792;52.760;6.726;2024-02-21T03:36:53;9.20;99.90
59007;DHT22;44792;52.760;6.726;2024-02-21T03:39:19;9.30;99.90
59007;DHT22;44792;52.760;6.726;2024-02-21T03:41:45;9.20;99.90
59007;DHT22;44792;52.760;6.726;2024-02-21T03:44:11;9.20;99.90
59007;DHT22;44792;52.760;6.726;2024-02-21T03:46:36;9.20;99.90
59007;DHT22;44792;52.760;6.726;2024-02-21T03:49:02;9.20;99.90
59007;DHT22;44792;52.760;6.726;2024-02-21T03:51:28;9.20;99.90
59007;DHT22;44792;52.760;6.726;2024-02-21T03:53:53;9.30;99.90
59007;DHT22;44792;52.760;6.726;2024-02-21T03:56:19;9.20;99.90
59007;DHT22;44792;52.760;6.726;2024-02-21T03:58:45;9.30;99.90
59007;DHT22;44792;52.760;6.726;2024-02-21T04:01:10;9.20;99.90
59007;DHT22;44792;52.760;6.726;2024-02-21T04:03:36;9.20;99.90
59007;DHT22;44792;52.760;6.726;2024-02-21T04:06:01;9.30;99.90
59007;DHT22;44792;52.760;6.726;2024-02-21T04:08:27;9.30;99.90
59007;DHT22;44792;52.760;6.726;2024-02-21T04:10:53;9.30;99.90
59007;DHT22;44792;52.760;6.726;2024-02-21T04:13:18;9.30;99.90
59007;DHT22;44792;52.760;6.726;2024-02-21T04:15:44;9.30;99.90
59007;DHT22;44792;52.760;6.726;2024-02-21T04:18:10;9.30;99.90
59007;DHT22;44792;52.760;6.726;2024-02-21T04:20:35;9.30;99.90
59007;DHT22;44792;52.760;6.726;2024-02-21T04:23:01;9.30;99.90
59007;DHT22;44792;52.760;6.726;2024-02-21T04:25:27;9.30;99.90
59007;DHT22;44792;52.760;6.726;2024-02-21T04:27:52;9.30;99.90
59007;DHT22;44792;52.760;6.726;2024-02-21T04:30:18;9.30;99.90
59007;DHT22;44792;52.760;6.726;2024-02-21T04:32:44;9.30;99.90
59007;DHT22;44792;52.760;6.726;2024-02-21T04:35:10;9.30;99.90
59007;DHT22;44792;52.760;6.726;2024-02-21T04:37:35;9.30;99.90
59007;DHT22;44792;52.760;6.726;2024-02-21T04:40:01;9.30;99.90
59007;DHT22;44792;52.760;6.726;2024-02-21T04:42:27;9.30;99.90
59007;DHT22;44792;52.760;6.726;2024-02-21T04:44:53;9.40;99.90
59007;DHT22;44792;52.760;6.726;2024-02-21T04:47:19;9.30;99.90
59007;DHT22;44792;52.760;6.726;2024-02-21T04:49:45;9.30;99.90
59007;DHT22;44792;52.760;6.726;2024-02-21T04:52:11;9.30;99.90
59007;DHT22;44792;52.760;6.726;2024-02-21T04:54:37;9.30;99.90
59007;DHT22;44792;52.760;6.726;2024-02-21T04:57:03;9.30;99.90
59007;DHT22;44792;52.760;6.726;2024-02-21T04:59:29;9.30;99.90
59007;DHT22;44792;52.760;6.726;2024-02-21T05:01:55;9.30;99.90
59007;DHT22;44792;52.760;6.726;2024-02-21T05:04:21;9.30;99.90
59007;DHT22;44792;52.760;6.726;2024-02-21T05:06:46;9.30;99.90
59007;DHT22;44792;52.760;6.726;2024-02-21T05:09:12;9.30;99.90
59007;DHT22;44792;52.760;6.726;2024-02-21T05:11:38;9.30;99.90
59007;DHT22;44792;52.760;6.726;2024-02-21T05:14:04;9.30;99.90
59007;DHT22;44792;52.760;6.726;2024-02-21T05:16:30;9.30;99.90
59007;DHT22;44792;52.760;6.726;2024-02-21T05:18:56;9.30;99.90
59007;DHT22;44792;52.760;6.726;2024-02-21T05:21:25;9.30;99.90
59007;DHT22;44792;52.760;6.726;2024-02-21T05:23:51;9.30;99.90
59007;DHT22;44792;52.760;6.726;2024-02-21T05:26:27;9.40;99.90
59007;DHT22;44792;52.760;6.726;2024-02-21T05:28:53;9.30;99.90
59007;DHT22;44792;52.760;6.726;2024-02-21T05:31:19;9.40;99.90
59007;DHT22;44792;52.760;6.726;2024-02-21T05:33:46;9.40;99.90
59007;DHT22;44792;52.760;6.726;2024-02-21T05:36:12;9.30;99.90
59007;DHT22;44792;52.760;6.726;2024-02-21T05:38:38;9.40;99.90
59007;DHT22;44792;52.760;6.726;2024-02-21T05:41:04;9.40;99.90
59007;DHT22;44792;52.760;6.726;2024-02-21T05:43:30;9.40;99.90
59007;DHT22;44792;52.760;6.726;2024-02-21T05:45:55;9.40;99.90
59007;DHT22;44792;52.760;6.726;2024-02-21T05:48:25;9.40;99.90
59007;DHT22;44792;52.760;6.726;2024-02-21T05:50:50;9.40;99.90
59007;DHT22;44792;52.760;6.726;2024-02-21T05:53:16;9.40;99.90
59007;DHT22;44792;52.760;6.726;2024-02-21T05:55:42;9.30;99.90
59007;DHT22;44792;52.760;6.726;2024-02-21T05:58:08;9.30;99.90
59007;DHT22;44792;52.760;6.726;2024-02-21T06:00:39;9.30;99.90
59007;DHT22;44792;52.760;6.726;2024-02-21T06:03:05;9.30;99.90
59007;DHT22;44792;52.760;6.726;2024-02-21T06:05:31;9.30;99.90
59007;DHT22;44792;52.760;6.726;2024-02-21T06:07:57;9.30;99.90
59007;DHT22;44792;52.760;6.726;2024-02-21T06:10:23;9.30;99.90
59007;DHT22;44792;52.760;6.726;2024-02-21T06:12:48;9.30;99.90
59007;DHT22;44792;52.760;6.726;2024-02-21T06:15:14;9.30;99.90
59007;DHT22;44792;52.760;6.726;2024-02-21T06:17:40;9.30;99.90
59007;DHT22;44792;52.760;6.726;2024-02-21T06:20:06;9.30;99.90
59007;DHT22;44792;52.760;6.726;2024-02-21T06:22:32;9.30;99.90
59007;DHT22;44792;52.760;6.726;2024-02-21T06:24:58;9.20;99.90
59007;DHT22;44792;52.760;6.726;2024-02-21T06:27:23;9.30;99.90
59007;DHT22;44792;52.760;6.726;2024-02-21T06:29:49;9.30;99.90
59007;DHT22;44792;52.760;6.726;2024-02-21T06:32:15;9.30;99.90
59007;DHT22;44792;52.760;6.726;2024-02-21T06:34:41;9.30;99.90
59007;DHT22;44792;52.760;6.726;2024-02-21T06:37:07;9.40;99.90
59007;DHT22;44792;52.760;6.726;2024-02-21T06:39:32;9.50;99.90
59007;DHT22;44792;52.760;6.726;2024-02-21T06:41:58;9.40;99.90
59007;DHT22;44792;52.760;6.726;2024-02-21T06:44:24;9.40;99.90
59007;DHT22;44792;52.760;6.726;2024-02-21T06:46:49;9.30;99.90
59007;DHT22;44792;52.760;6.726;2024-02-21T06:49:15;9.30;99.90
59007;DHT22;44792;52.760;6.726;2024-02-21T06:51:44;9.30;99.90
59007;DHT22;44792;52.760;6.726;2024-02-21T06:54:10;9.30;99.90
59007;DHT22;44792;52.760;6.726;2024-02-21T06:56:36;9.30;99.90
59007;DHT22;44792;52.760;6.726;2024-02-21T06:59:03;9.40;99.90
59007;DHT22;44792;52.760;6.726;2024-02-21T07:01:29;9.30;99.90
59007;DHT22;44792;52.760;6.726;2024-02-21T07:03:55;9.30;99.90
59007;DHT22;44792;52.760;6.726;2024-02-21T07:06:21;9.30;99.90
59007;DHT22;44792;52.760;6.726;2024-02-21T07:08:47;9.30;99.90
59007;DHT22;44792;52.760;6.726;2024-02-21T07:11:13;9.30;99.90
59007;DHT22;44792;52.760;6.726;2024-02-21T07:13:39;9.30;99.90
59007;DHT22;44792;52.760;6.726;2024-02-21T07:16:05;9.30;99.90
59007;DHT22;44792;52.760;6.726;2024-02-21T07:18:31;9.20;99.90
59007;DHT22;44792;52.760;6.726;2024-02-21T07:20:57;9.30;99.90
59007;DHT22;44792;52.760;6.726;2024-02-21T07:23:24;9.30;99.90
59007;DHT22;44792;52.760;6.726;2024-02-21T07:25:49;9.20;99.90
59007;DHT22;44792;52.760;6.726;2024-02-21T07:28:18;9.20;99.90
59007;DHT22;44792;52.760;6.726;2024-02-21T07:30:44;9.30;99.90
59007;DHT22;44792;52.760;6.726;2024-02-21T07:33:09;9.20;99.90
59007;DHT22;44792;52.760;6.726;2024-02-21T07:35:35;9.20;99.90
59007;DHT22;44792;52.760;6.726;2024-02-21T07:38:06;9.30;99.90
59007;DHT22;44792;52.760;6.726;2024-02-21T07:40:32;9.20;99.90
59007;DHT22;44792;52.760;6.726;2024-02-21T07:42:58;9.20;99.90
59007;DHT22;44792;52.760;6.726;2024-02-21T07:45:24;9.20;99.90
59007;DHT22;44792;52.760;6.726;2024-02-21T07:47:50;9.20;99.90
59007;DHT22;44792;52.760;6.726;2024-02-21T07:50:16;9.20;99.90
59007;DHT22;44792;52.760;6.726;2024-02-21T07:52:42;9.20;99.90
59007;DHT22;44792;52.760;6.726;2024-02-21T07:55:08;9.10;99.90
59007;DHT22;44792;52.760;6.726;2024-02-21T07:57:36;9.10;99.90
59007;DHT22;44792;52.760;6.726;2024-02-21T08:00:02;9.10;99.90
59007;DHT22;44792;52.760;6.726;2024-02-21T08:02:29;9.10;99.90
59007;DHT22;44792;52.760;6.726;2024-02-21T08:04:55;9.10;99.90
59007;DHT22;44792;52.760;6.726;2024-02-21T08:07:21;9.20;99.90
59007;DHT22;44792;52.760;6.726;2024-02-21T08:09:46;9.10;99.90
59007;DHT22;44792;52.760;6.726;2024-02-21T08:12:12;9.00;99.90
59007;DHT22;44792;52.760;6.726;2024-02-21T08:14:41;9.10;99.90
59007;DHT22;44792;52.760;6.726;2024-02-21T08:17:06;9.10;99.90
59007;DHT22;44792;52.760;6.726;2024-02-21T08:19:41;9.10;99.90
59007;DHT22;44792;52.760;6.726;2024-02-21T08:22:07;9.10;99.90
59007;DHT22;44792;52.760;6.726;2024-02-21T08:24:32;9.10;99.90
59007;DHT22;44792;52.760;6.726;2024-02-21T08:26:58;9.10;99.90
59007;DHT22;44792;52.760;6.726;2024-02-21T08:29:24;9.00;99.90
59007;DHT22;44792;52.760;6.726;2024-02-21T08:31:49;9.00;99.90
59007;DHT22;44792;52.760;6.726;2024-02-21T08:34:15;9.10;99.90
59007;DHT22;44792;52.760;6.726;2024-02-21T08:36:41;9.00;99.90
59007;DHT22;44792;52.760;6.726;2024-02-21T08:39:07;9.00;99.90
59007;DHT22;44792;52.760;6.726;2024-02-21T08:41:35;9.10;99.90
59007;DHT22;44792;52.760;6.726;2024-02-21T08:44:01;9.10;99.90
59007;DHT22;44792;52.760;6.726;2024-02-21T08:46:26;9.10;99.90
59007;DHT22;44792;52.760;6.726;2024-02-21T08:48:53;9.40;99.90
59007;DHT22;44792;52.760;6.726;2024-02-21T08:51:20;9.50;99.90
59007;DHT22;44792;52.760;6.726;2024-02-21T08:53:46;9.40;99.90
59007;DHT22;44792;52.760;6.726;2024-02-21T08:56:11;9.30;99.90
59007;DHT22;44792;52.760;6.726;2024-02-21T08:58:39;9.30;99.90
59007;DHT22;44792;52.760;6.726;2024-02-21T09:01:06;9.30;99.90
59007;DHT22;44792;52.760;6.726;2024-02-21T09:03:33;9.30;99.90
59007;DHT22;44792;52.760;6.726;2024-02-21T09:05:59;9.30;99.90
59007;DHT22;44792;52.760;6.726;2024-02-21T09:08:26;9.30;99.90
59007;DHT22;44792;52.760;6.726;2024-02-21T09:10:52;9.30;99.90
59007;DHT22;44792;52.760;6.726;2024-02-21T09:13:18;9.30;99.90
59007;DHT22;44792;52.760;6.726;2024-02-21T09:15:44;9.20;99.90
59007;DHT22;44792;52.760;6.726;2024-02-21T09:18:09;9.30;99.90
59007;DHT22;44792;52.760;6.726;2024-02-21T09:20:35;9.30;99.90
59007;DHT22;44792;52.760;6.726;2024-02-21T09:23:01;9.30;99.90
59007;DHT22;44792;52.760;6.726;2024-02-21T09:25:27;9.30;99.90
59007;DHT22;44792;52.760;6.726;2024-02-21T09:27:54;9.30;99.90
59007;DHT22;44792;52.760;6.726;2024-02-21T09:30:20;9.40;99.90
59007;DHT22;44792;52.760;6.726;2024-02-21T09:32:46;9.40;99.90
59007;DHT22;44792;52.760;6.726;2024-02-21T09:35:12;9.40;99.90
59007;DHT22;44792;52.760;6.726;2024-02-21T09:37:39;9.40;99.90
59007;DHT22;44792;52.760;6.726;2024-02-21T09:40:05;9.50;99.90
59007;DHT22;44792;52.760;6.726;2024-02-21T09:42:41;9.50;99.90
59007;DHT22;44792;52.760;6.726;2024-02-21T09:45:23;9.50;99.90
59007;DHT22;44792;52.760;6.726;2024-02-21T09:50:29;9.50;99.90
59007;DHT22;44792;52.760;6.726;2024-02-21T09:52:58;9.60;99.90
59007;DHT22;44792;52.760;6.726;2024-02-21T09:55:28;9.60;99.90
59007;DHT22;44792;52.760;6.726;2024-02-21T09:57:56;9.60;99.90
59007;DHT22;44792;52.760;6.726;2024-02-21T10:00:23;9.60;99.90
59007;DHT22;44792;52.760;6.726;2024-02-21T10:02:49;9.60;99.90
59007;DHT22;44792;52.760;6.726;2024-02-21T10:05:16;9.60;99.90
59007;DHT22;44792;52.760;6.726;2024-02-21T10:07:43;9.60;99.90
59007;DHT22;44792;52.760;6.726;2024-02-21T10:10:09;9.70;99.90
59007;DHT22;44792;52.760;6.726;2024-02-21T10:12:35;9.70;99.90
59007;DHT22;44792;52.760;6.726;2024-02-21T10:15:05;9.60;99.90
59007;DHT22;44792;52.760;6.726;2024-02-21T10:17:35;9.60;99.90
59007;DHT22;44792;52.760;6.726;2024-02-21T10:20:09;9.60;99.90
59007;DHT22;44792;52.760;6.726;2024-02-21T10:22:35;9.70;99.90
59007;DHT22;44792;52.760;6.726;2024-02-21T10:25:09;9.70;99.90
59007;DHT22;44792;52.760;6.726;2024-02-21T10:27:34;9.70;99.90
59007;DHT22;44792;52.760;6.726;2024-02-21T10:30:01;9.70;99.90
59007;DHT22;44792;52.760;6.726;2024-02-21T10:32:27;9.70;99.90
59007;DHT22;44792;52.760;6.726;2024-02-21T10:35:01;9.60;99.90
59007;DHT22;44792;52.760;6.726;2024-02-21T10:37:28;9.60;99.90
59007;DHT22;44792;52.760;6.726;2024-02-21T10:39:54;9.70;99.90
59007;DHT22;44792;52.760;6.726;2024-02-21T10:42:21;9.70;99.90
59007;DHT22;44792;52.760;6.726;2024-02-21T10:44:50;9.70;99.90
59007;DHT22;44792;52.760;6.726;2024-02-21T10:47:17;9.70;99.90
59007;DHT22;44792;52.760;6.726;2024-02-21T10:49:49;9.70;99.90
59007;DHT22;44792;52.760;6.726;2024-02-21T10:55:21;9.80;99.90
59007;DHT22;44792;52.760;6.726;2024-02-21T10:57:50;9.80;99.90
59007;DHT22;44792;52.760;6.726;2024-02-21T11:00:18;9.80;99.90
59007;DHT22;44792;52.760;6.726;2024-02-21T11:02:45;9.90;99.90
59007;DHT22;44792;52.760;6.726;2024-02-21T11:05:11;10.00;99.90
59007;DHT22;44792;52.760;6.726;2024-02-21T11:07:38;10.00;99.90
59007;DHT22;44792;52.760;6.726;2024-02-21T11:10:04;9.90;99.90
59007;DHT22;44792;52.760;6.726;2024-02-21T11:12:33;9.90;99.90
59007;DHT22;44792;52.760;6.726;2024-02-21T11:15:05;9.80;99.90
59007;DHT22;44792;52.760;6.726;2024-02-21T11:17:31;9.80;99.90
59007;DHT22;44792;52.760;6.726;2024-02-21T11:19:57;9.80;99.90
59007;DHT22;44792;52.760;6.726;2024-02-21T11:22:24;9.70;99.90
59007;DHT22;44792;52.760;6.726;2024-02-21T11:24:54;9.80;99.90
59007;DHT22;44792;52.760;6.726;2024-02-21T11:27:22;9.80;99.90
59007;DHT22;44792;52.760;6.726;2024-02-21T11:29:57;9.80;99.90
59007;DHT22;44792;52.760;6.726;2024-02-21T11:32:25;9.80;99.90
59007;DHT22;44792;52.760;6.726;2024-02-21T11:37:19;9.90;99.90
59007;DHT22;44792;52.760;6.726;2024-02-21T11:39:45;9.90;99.90
59007;DHT22;44792;52.760;6.726;2024-02-21T11:42:11;9.90;99.90
59007;DHT22;44792;52.760;6.726;2024-02-21T11:44:38;9.90;99.90
59007;DHT22;44792;52.760;6.726;2024-02-21T11:47:05;9.90;99.90
59007;DHT22;44792;52.760;6.726;2024-02-21T11:49:37;10.00;99.90
59007;DHT22;44792;52.760;6.726;2024-02-21T11:52:04;9.90;99.90
59007;DHT22;44792;52.760;6.726;2024-02-21T11:54:30;9.90;99.90
59007;DHT22;44792;52.760;6.726;2024-02-21T11:56:56;10.00;99.90
59007;DHT22;44792;52.760;6.726;2024-02-21T11:59:22;10.00;99.90
59007;DHT22;44792;52.760;6.726;2024-02-21T12:01:52;10.00;99.90
59007;DHT22;44792;52.760;6.726;2024-02-21T12:04:21;10.00;99.90
59007;DHT22;44792;52.760;6.726;2024-02-21T12:06:49;10.00;99.90
59007;DHT22;44792;52.760;6.726;2024-02-21T12:09:16;10.00;99.90
59007;DHT22;44792;52.760;6.726;2024-02-21T12:11:42;10.00;99.90
59007;DHT22;44792;52.760;6.726;2024-02-21T12:14:08;10.00;99.90
59007;DHT22;44792;52.760;6.726;2024-02-21T12:16:35;10.00;99.90
59007;DHT22;44792;52.760;6.726;2024-02-21T12:19:04;10.00;99.90
59007;DHT22;44792;52.760;6.726;2024-02-21T12:21:31;10.00;99.90
59007;DHT22;44792;52.760;6.726;2024-02-21T12:23:59;10.00;99.90
59007;DHT22;44792;52.760;6.726;2024-02-21T12:26:25;10.00;99.90
59007;DHT22;44792;52.760;6.726;2024-02-21T12:28:51;10.00;99.90
59007;DHT22;44792;52.760;6.726;2024-02-21T12:31:17;10.00;99.90
59007;DHT22;44792;52.760;6.726;2024-02-21T12:33:43;10.00;99.90
59007;DHT22;44792;52.760;6.726;2024-02-21T12:36:09;10.00;99.90
59007;DHT22;44792;52.760;6.726;2024-02-21T12:38:37;10.00;99.90
59007;DHT22;44792;52.760;6.726;2024-02-21T12:41:03;10.00;99.90
59007;DHT22;44792;52.760;6.726;2024-02-21T12:43:29;10.00;99.90
59007;DHT22;44792;52.760;6.726;2024-02-21T12:45:56;10.00;99.90
59007;DHT22;44792;52.760;6.726;2024-02-21T12:48:21;9.90;99.90
59007;DHT22;44792;52.760;6.726;2024-02-21T12:50:49;9.90;99.90
59007;DHT22;44792;52.760;6.726;2024-02-21T12:53:19;9.90;99.90
59007;DHT22;44792;52.760;6.726;2024-02-21T12:55:47;9.80;99.90
59007;DHT22;44792;52.760;6.726;2024-02-21T12:58:14;9.90;99.90
59007;DHT22;44792;52.760;6.726;2024-02-21T13:00:40;9.90;99.90
59007;DHT22;44792;52.760;6.726;2024-02-21T13:03:06;9.90;99.90
59007;DHT22;44792;52.760;6.726;2024-02-21T13:05:31;9.90;99.90
59007;DHT22;44792;52.760;6.726;2024-02-21T13:07:58;9.80;99.90
59007;DHT22;44792;52.760;6.726;2024-02-21T13:10:24;9.90;99.90
59007;DHT22;44792;52.760;6.726;2024-02-21T13:12:50;9.90;99.90
59007;DHT22;44792;52.760;6.726;2024-02-21T13:15:15;10.00;99.90
59007;DHT22;44792;52.760;6.726;2024-02-21T13:17:44;10.00;99.90
59007;DHT22;44792;52.760;6.726;2024-02-21T13:20:10;10.00;99.90
59007;DHT22;44792;52.760;6.726;2024-02-21T13:22:36;10.00;99.90
59007;DHT22;44792;52.760;6.726;2024-02-21T13:25:03;10.00;99.90
59007;DHT22;44792;52.760;6.726;2024-02-21T13:27:29;10.00;99.90
59007;DHT22;44792;52.760;6.726;2024-02-21T13:29:54;10.00;99.90
59007;DHT22;44792;52.760;6.726;2024-02-21T13:32:20;10.00;99.90
59007;DHT22;44792;52.760;6.726;2024-02-21T13:34:46;10.00;99.90
59007;DHT22;44792;52.760;6.726;2024-02-21T13:37:11;10.00;99.90
59007;DHT22;44792;52.760;6.726;2024-02-21T13:39:39;10.00;99.90
59007;DHT22;44792;52.760;6.726;2024-02-21T13:42:05;10.00;99.90
59007;DHT22;44792;52.760;6.726;2024-02-21T13:44:31;10.00;99.90
59007;DHT22;44792;52.760;6.726;2024-02-21T13:46:57;10.00;99.90
59007;DHT22;44792;52.760;6.726;2024-02-21T13:49:23;10.00;99.90
59007;DHT22;44792;52.760;6.726;2024-02-21T13:51:49;10.00;99.90
59007;DHT22;44792;52.760;6.726;2024-02-21T13:54:14;10.00;99.90
59007;DHT22;44792;52.760;6.726;2024-02-21T13:56:42;10.00;99.90
59007;DHT22;44792;52.760;6.726;2024-02-21T13:59:08;9.90;99.90
59007;DHT22;44792;52.760;6.726;2024-02-21T14:01:34;9.90;99.90
59007;DHT22;44792;52.760;6.726;2024-02-21T14:04:01;9.90;99.90
59007;DHT22;44792;52.760;6.726;2024-02-21T14:06:27;9.80;99.90
59007;DHT22;44792;52.760;6.726;2024-02-21T14:08:53;9.80;99.90
59007;DHT22;44792;52.760;6.726;2024-02-21T14:11:18;9.80;99.90
59007;DHT22;44792;52.760;6.726;2024-02-21T14:13:44;9.80;99.90
59007;DHT22;44792;52.760;6.726;2024-02-21T14:16:10;9.80;99.90
59007;DHT22;44792;52.760;6.726;2024-02-21T14:18:42;9.80;99.90
59007;DHT22;44792;52.760;6.726;2024-02-21T14:21:08;9.80;99.90
59007;DHT22;44792;52.760;6.726;2024-02-21T14:23:37;9.80;99.90
59007;DHT22;44792;52.760;6.726;2024-02-21T14:26:03;9.80;99.90
59007;DHT22;44792;52.760;6.726;2024-02-21T14:28:29;9.80;99.90
59007;DHT22;44792;52.760;6.726;2024-02-21T14:30:54;9.80;99.90
59007;DHT22;44792;52.760;6.726;2024-02-21T14:33:23;9.80;99.90
59007;DHT22;44792;52.760;6.726;2024-02-21T14:35:50;9.80;99.90
59007;DHT22;44792;52.760;6.726;2024-02-21T14:38:17;9.80;99.90
59007;DHT22;44792;52.760;6.726;2024-02-21T14:40:43;9.80;99.90
59007;DHT22;44792;52.760;6.726;2024-02-21T14:43:09;9.80;99.90
59007;DHT22;44792;52.760;6.726;2024-02-21T14:45:34;9.80;99.90
59007;DHT22;44792;52.760;6.726;2024-02-21T14:48:00;9.80;99.90
59007;DHT22;44792;52.760;6.726;2024-02-21T14:50:26;9.80;99.90
59007;DHT22;44792;52.760;6.726;2024-02-21T14:52:52;9.80;99.90
59007;DHT22;44792;52.760;6.726;2024-02-21T14:55:18;9.80;99.90
59007;DHT22;44792;52.760;6.726;2024-02-21T14:57:43;9.80;99.90
59007;DHT22;44792;52.760;6.726;2024-02-21T15:00:10;9.80;99.90
59007;DHT22;44792;52.760;6.726;2024-02-21T15:02:37;9.90;99.90
59007;DHT22;44792;52.760;6.726;2024-02-21T15:05:03;9.80;99.90
59007;DHT22;44792;52.760;6.726;2024-02-21T15:07:32;9.80;99.90
59007;DHT22;44792;52.760;6.726;2024-02-21T15:09:58;9.80;99.90
59007;DHT22;44792;52.760;6.726;2024-02-21T15:12:24;9.80;99.90
59007;DHT22;44792;52.760;6.726;2024-02-21T15:14:51;9.90;99.90
59007;DHT22;44792;52.760;6.726;2024-02-21T15:17:17;9.90;99.90
59007;DHT22;44792;52.760;6.726;2024-02-21T15:19:44;9.90;99.90
59007;DHT22;44792;52.760;6.726;2024-02-21T15:22:10;9.90;99.90
59007;DHT22;44792;52.760;6.726;2024-02-21T15:24:39;9.90;99.90
59007;DHT22;44792;52.760;6.726;2024-02-21T15:27:05;9.90;99.90
59007;DHT22;44792;52.760;6.726;2024-02-21T15:29:31;9.90;99.90
59007;DHT22;44792;52.760;6.726;2024-02-21T15:31:57;9.90;99.90
59007;DHT22;44792;52.760;6.726;2024-02-21T15:34:23;9.90;99.90
59007;DHT22;44792;52.760;6.726;2024-02-21T15:36:49;9.90;99.90
59007;DHT22;44792;52.760;6.726;2024-02-21T15:39:14;9.90;99.90
59007;DHT22;44792;52.760;6.726;2024-02-21T15:41:40;9.90;99.90
59007;DHT22;44792;52.760;6.726;2024-02-21T15:44:06;9.90;99.90
59007;DHT22;44792;52.760;6.726;2024-02-21T15:46:32;9.90;99.90
59007;DHT22;44792;52.760;6.726;2024-02-21T15:49:01;9.90;99.90